My Meet Scores
Addison Piel, Gym Kinetics Gymnastics - MyMeetScores.com
Top100 | Top Teams | Upcoming Meets | Completed Meets | Latest | Add Scores | Help| Support | Bookmark and Share

Addison Piel, Gym Kinetics Gymnastics
Personal Bests
LevelVault BarsBeamFloorAA
39.8009.450 9.5759.37538.000
49.2759.075 9.3509.10036.300
59.6509.100 9.1259.37536.625
69.3509.350 9.4759.50037.300
Meet Scores
Date Meet Team Session Level Division Vault Bars Beam Floor AA
2020-02-21 Kinetic Classic Gym Kinetics Gymnastics 01 6 Middle 9.200 10T 8.850 25T 9.125 25T 9.175 30T 36.350 14
2020-01-31 Chow's Challenge Gym Kinetics Gymnastics A6 6 Jr D 8.875 5 9.150 4 9.150 2 8.950 8 36.125 2T
2020-01-17 2020 Bravo Classic Gym Kinetics Gymnastics 11A 6 Jr 9.325 3 9.000 8T 9.475 5 9.500 3T 37.300 2
2020-01-10 Leenda's Island Adventure Gym Kinetics Gymnastics GG7 6 11 Year Ol 8.750 4T 9.350 4T 9.400 2 9.000 9 36.500 3
2019-12-20 Aspire Classic - 2019 Gym Kinetics Gymnastics 2A 6 Younger 9.350 1 8.700 3 9.325 4T 9.250 2T 36.625 1
2019-12-07 Home for the Holidays 2019 Gym Kinetics Gymnastics 6 6 Middle 9.075 1 8.900 3T 9.225 5 8.800 10 36.000 6
2019-03-22 Illinois Gymnastics State Championships Gym Kinetics Gymnastics 1 5 JR D 9.650 5 9.000 11T 8.450 25 9.000 23 36.100 14
2019-03-01 NGCD Academy's 2019 Flip'r Invitational Gym Kinetics Gymnastics 11 5 Jr A 9.400 3T 9.100 7 9.075 5 9.050 6T 36.625 6
2019-02-23 Kinetic Classic 2019 Gym Kinetics Gymnastics 1 5 Middle 8.900 1T 8.150 15T 8.300 17 8.775 5 34.125 9
2019-02-08 Midwest Twisters Harley Meet Womens Gym Kinetics Gymnastics O11 5 10yrs. 8.900 4T 8.450 5 8.275 6 8.925 5 34.550 5
2019-01-18 2019 Bravo Classic Gym Kinetics Gymnastics 2A 5 Child 9.125 3 8.575 20 9.125 13T 9.375 13 36.200 12
2019-01-11 St Jude Benefit Meet Gym Kinetics Gymnastics 8A 5 Jr B 9.350 3 8.150 14 8.050 13 9.050 4T 34.600 8
2018-12-14 2018 Aspire Classic Gym Kinetics Gymnastics 8A 5 Younger 9.400 4T 8.750 18 8.400 23 8.700 14 35.250 18T
2018-03-08 Level 4 & 5 State Gym Kinetics Gymnastics All 4 Yh B 9.275 3 8.775 11T 9.350 9 8.825 14T 36.225 8
2018-02-23 Kinetic Classic Gym Kinetics Gymnastics 7 4 Middle 8.800 15T 9.050 26T 9.075 44T 9.075 37 36.000 22
2018-02-09 Arizona Sunrays Classic Rock Invitational Gym Kinetics Gymnastics W11 4 JrC 9.175 1 8.250 7 9.300 5 8.500 7 35.225 5
2018-02-03 Midwest Games Gym Kinetics Gymnastics 6 4 Jr B 8.900 2 9.075 7 9.250 4T 8.775 11 36.000 3
2018-01-19 2018 Bravo Classic Gym Kinetics Gymnastics 10B 4 Child 9.125 1 9.000 4 9.125 6 8.950 7T 36.200 1
2017-12-15 2017 Aspire Classic Gym Kinetics Gymnastics 7A 4 Younger 9.250 1 8.875 8 9.075 11T 9.100 11T 36.300 5
2017-03-30 2017 Illinois Level 3 & 5 State Gym Kinetics Gymnastics All 3 Yh D 9.800 1 9.375 8T 9.575 2 9.250 9 38.000 3
2017-02-24 Kinetic Classic Gym Kinetics Gymnastics 4,5,6,7 3 All Ages 9.100 48T 9.100 43T 9.450 9T 9.375 12 37.025 15
2017-02-09 Hal's Harley-Davidson Invite Gym Kinetics Gymnastics S11 3 8 yrs. 9.400 1 9.400 1T 8.925 3 9.325 1T 37.050 2
2017-01-13 St Jude Benefit Meet Gym Kinetics Gymnastics 7A 3 Jr B 9.300 2 9.450 4 9.075 1 9.325 3 37.150 2
2016-12-16 2016 Aspire Classic Gym Kinetics Gymnastics 12 3 Middle 9.450 2T 9.125 7 9.250 1T 9.175 6 37.000 4
Get your scores on
a t-shirt, pin, or hoodie

www.lazysuits.com